createdAt,value
2022-07-26T00:02:23.739Z,8.00
2022-07-26T00:07:23.730Z,8.00
2022-07-26T00:12:23.727Z,8.00
2022-07-26T00:17:23.721Z,6.20
2022-07-26T00:32:23.712Z,8.40
2022-07-26T00:37:23.750Z,8.40
2022-07-26T00:42:23.754Z,8.40
2022-07-26T00:47:23.747Z,7.40
2022-07-26T00:52:23.753Z,7.40
2022-07-26T01:17:23.781Z,9.70
2022-07-26T01:22:23.749Z,9.70
2022-07-26T01:27:23.735Z,9.70
2022-07-26T01:32:23.768Z,7.60
2022-07-26T01:37:23.758Z,7.60
2022-07-26T01:52:23.761Z,9.40
2022-07-26T02:02:23.865Z,8.30
2022-07-26T02:17:23.786Z,9.10
2022-07-26T02:22:23.799Z,9.10
2022-07-26T02:42:23.798Z,11.00
2022-07-26T02:52:23.802Z,7.00
2022-07-26T02:57:23.796Z,7.00
2022-07-26T03:07:23.766Z,6.10
2022-07-26T03:12:23.767Z,6.10
2022-07-26T03:22:23.789Z,6.70
2022-07-26T03:27:23.779Z,6.70
2022-07-26T03:32:23.786Z,6.50
2022-07-26T03:42:23.776Z,6.50
2022-07-26T04:02:23.869Z,10.00
2022-07-26T04:17:23.863Z,9.00
2022-07-26T04:27:23.799Z,9.00
2022-07-26T04:42:23.777Z,8.50
2022-07-26T04:57:23.799Z,11.80
2022-07-26T05:02:24.020Z,8.80
2022-07-26T05:17:23.837Z,10.40
2022-07-26T05:27:23.820Z,10.40
2022-07-26T05:32:23.812Z,10.90
2022-07-26T05:37:23.804Z,10.90
2022-07-26T05:42:23.826Z,10.90
2022-07-26T05:47:23.840Z,9.60
2022-07-26T05:52:23.835Z,9.60
2022-07-26T05:57:23.821Z,9.60
2022-07-26T06:02:23.884Z,8.90
2022-07-26T06:07:23.843Z,8.90
2022-07-26T06:12:23.831Z,8.90
2022-07-26T06:17:23.894Z,10.00
2022-07-26T06:22:23.862Z,10.00
2022-07-26T06:32:23.830Z,8.60
2022-07-26T06:37:23.831Z,8.60
2022-07-26T06:42:23.834Z,8.60
2022-07-26T06:47:23.933Z,4.60
2022-07-26T06:52:23.845Z,4.60
2022-07-26T06:57:23.865Z,4.60
2022-07-26T07:02:23.852Z,5.50
2022-07-26T07:12:23.870Z,5.50
2022-07-26T07:27:23.862Z,5.00
2022-07-26T07:32:24.645Z,4.00
2022-07-26T07:37:23.874Z,4.00
2022-07-26T07:42:23.865Z,4.00
2022-07-26T07:47:23.898Z,2.60
2022-07-26T07:52:23.860Z,2.60
2022-07-26T07:57:24.257Z,2.60
2022-07-26T08:02:24.086Z,5.50
2022-07-26T08:07:23.873Z,5.50
2022-07-26T08:12:23.865Z,5.50
2022-07-26T08:17:23.880Z,3.50
2022-07-26T08:22:23.887Z,3.50
2022-07-26T08:27:23.887Z,3.50
2022-07-26T08:32:23.895Z,3.20
2022-07-26T08:42:23.873Z,3.20
2022-07-26T08:47:35.186Z,2.80
2022-07-26T08:52:23.899Z,2.80
2022-07-26T09:07:23.917Z,1.80
2022-07-26T09:12:23.903Z,1.80
2022-07-26T09:22:23.917Z,1.60
2022-07-26T09:27:27.971Z,1.60
2022-07-26T09:37:23.901Z,1.50
2022-07-26T09:42:28.427Z,1.50
2022-07-26T09:47:23.906Z,2.90
2022-07-26T09:52:23.932Z,2.90
2022-07-26T10:02:23.947Z,2.10
2022-07-26T10:17:28.976Z,2.00
2022-07-26T10:22:23.947Z,2.00
2022-07-26T10:27:23.935Z,2.00
2022-07-26T10:32:23.946Z,4.00
2022-07-26T10:37:23.947Z,4.00
2022-07-26T10:42:23.936Z,4.00
2022-07-26T10:47:23.956Z,2.00
2022-07-26T10:52:23.944Z,2.00
2022-07-26T10:57:23.946Z,2.00
2022-07-26T11:02:24.002Z,2.10
2022-07-26T11:07:23.953Z,2.10
2022-07-26T11:12:23.949Z,2.10
2022-07-26T11:22:24.152Z,3.80
2022-07-26T11:27:23.961Z,3.80
2022-07-26T11:32:24.049Z,2.90
2022-07-26T11:37:23.949Z,2.90
2022-07-26T11:42:23.971Z,2.90
2022-07-26T11:47:25.398Z,2.00
2022-07-26T11:52:25.611Z,2.00
2022-07-26T11:57:23.971Z,2.00
2022-07-26T12:02:23.959Z,3.80
2022-07-26T12:07:23.972Z,3.80
2022-07-26T12:12:23.977Z,3.80
2022-07-26T12:22:23.983Z,3.50
2022-07-26T12:27:23.979Z,3.50
2022-07-26T12:32:23.992Z,2.60
2022-07-26T12:37:28.327Z,2.60
2022-07-26T12:42:23.985Z,2.60
2022-07-26T12:47:23.983Z,3.60
2022-07-26T12:52:23.989Z,3.60
2022-07-26T13:02:23.992Z,4.40
2022-07-26T13:07:23.995Z,4.40
2022-07-26T13:12:23.995Z,4.40
2022-07-26T13:22:24.006Z,3.20
2022-07-26T13:27:24.008Z,3.20
2022-07-26T13:32:24.000Z,4.10
2022-07-26T13:37:24.006Z,4.10
2022-07-26T13:42:24.027Z,4.10
2022-07-26T13:47:24.013Z,3.60
2022-07-26T13:52:24.016Z,3.60
2022-07-26T13:57:24.018Z,3.60
2022-07-26T14:02:24.091Z,4.00
2022-07-26T14:07:24.011Z,4.00
2022-07-26T14:12:24.066Z,4.00
2022-07-26T14:17:24.056Z,8.50
2022-07-26T14:22:24.037Z,8.50
2022-07-26T14:27:24.038Z,8.50
2022-07-26T14:32:24.057Z,5.60
2022-07-26T14:37:42.165Z,5.60
2022-07-26T14:42:24.014Z,5.60
2022-07-26T14:47:24.047Z,5.10
2022-07-26T14:52:24.038Z,5.10
2022-07-26T14:57:40.057Z,5.10
2022-07-26T15:02:24.086Z,6.50
2022-07-26T15:07:24.039Z,6.50
2022-07-26T15:12:24.034Z,6.50
2022-07-26T15:17:24.053Z,3.90
2022-07-26T15:22:24.056Z,3.90
2022-07-26T15:27:24.051Z,3.90
2022-07-26T15:32:24.103Z,5.60
2022-07-26T15:37:24.052Z,5.60
2022-07-26T15:42:24.047Z,5.60
2022-07-26T15:47:52.228Z,4.20
2022-07-26T15:52:24.057Z,4.20
2022-07-26T15:57:24.054Z,4.20
2022-07-26T16:02:24.098Z,4.00
2022-07-26T16:07:24.077Z,4.00
2022-07-26T16:12:24.076Z,4.00
2022-07-26T16:22:24.070Z,3.50
2022-07-26T16:27:24.077Z,3.50
2022-07-26T16:32:24.087Z,5.40
2022-07-26T16:37:24.089Z,5.40
2022-07-26T16:42:24.080Z,5.40
2022-07-26T16:47:24.075Z,3.40
2022-07-26T16:52:24.077Z,3.40
2022-07-26T16:57:24.071Z,3.40
2022-07-26T17:12:24.102Z,4.60
2022-07-26T17:22:24.116Z,4.00
2022-07-26T17:27:24.085Z,4.00
2022-07-26T17:32:24.111Z,3.60
2022-07-26T17:37:24.112Z,3.60
2022-07-26T17:47:29.038Z,5.00
2022-07-26T17:57:24.099Z,5.00
2022-07-26T18:02:24.204Z,2.30
2022-07-26T18:07:24.115Z,2.30
2022-07-26T18:12:24.120Z,2.30
2022-07-26T18:17:24.129Z,3.80
2022-07-26T18:22:24.894Z,3.80
2022-07-26T18:27:24.117Z,3.80
2022-07-26T18:32:24.123Z,4.80
2022-07-26T18:37:24.149Z,4.80
2022-07-26T18:42:24.128Z,4.80
2022-07-26T18:47:24.139Z,3.10
2022-07-26T18:52:31.841Z,3.10
2022-07-26T18:57:24.146Z,3.10
2022-07-26T19:02:24.158Z,3.40
2022-07-26T19:07:24.151Z,3.40
2022-07-26T19:12:24.142Z,3.40
2022-07-26T19:17:24.142Z,4.10
2022-07-26T19:27:24.145Z,4.10
2022-07-26T19:37:24.182Z,4.80
2022-07-26T19:42:24.157Z,4.80
2022-07-26T19:52:24.148Z,4.80
2022-07-26T20:02:24.245Z,2.70
2022-07-26T20:07:24.165Z,2.70
2022-07-26T20:12:24.158Z,2.70
2022-07-26T20:17:24.249Z,4.40
2022-07-26T20:27:24.189Z,4.40
2022-07-26T20:42:24.170Z,4.50
2022-07-26T20:47:24.300Z,3.00
2022-07-26T21:02:24.377Z,4.40
2022-07-26T21:12:24.197Z,4.40
2022-07-26T21:17:32.668Z,2.50
2022-07-26T21:22:24.192Z,2.50
2022-07-26T21:27:24.204Z,2.50
2022-07-26T21:32:28.320Z,3.20
2022-07-26T21:37:24.205Z,3.20
2022-07-26T21:42:26.776Z,3.20
2022-07-26T21:47:24.204Z,5.90
2022-07-26T21:57:24.223Z,5.90
2022-07-26T22:07:24.221Z,4.90
2022-07-26T22:12:24.458Z,4.90
2022-07-26T22:22:24.210Z,5.20
2022-07-26T22:27:24.221Z,5.20
2022-07-26T22:47:24.242Z,2.90
2022-07-26T22:52:24.218Z,2.90
2022-07-26T22:57:24.239Z,2.90
2022-07-26T23:02:24.237Z,3.40
2022-07-26T23:07:24.227Z,3.40
2022-07-26T23:27:24.235Z,4.20
2022-07-26T23:32:24.265Z,4.20
2022-07-26T23:42:24.277Z,4.20
2022-07-26T23:52:25.641Z,4.00
2022-07-26T23:57:24.278Z,4.00
